Memphis, MO

5:17 PM CDT on April 30, 2017 (GMT -0500)
Cedar Kahoka | | Change Station

Elev 705 ft 40.42 °N, 91.73 °W | Updated 33 seconds ago

Rain
Rain
52.3 °F
Feels Like 52.3 °F
N
8.0
Wind Variable Wind from ENE

Today
High -- | Low -- °F
--% Chance of Precip.
Yesterday
High -- | Low -- °F
Precip. -- in
Pressure 29.48 in
Visibility 1.2 miles
Clouds Few 400 ft
Mostly Cloudy 1900 ft
Overcast 4600 ft
Dew Point 50 °F
Humidity 93%
Rainfall 0.58 in
Snow Depth Not available.
6:08 AM 8:03 PM
Waxing Crescent, 26% visible
SPECI KIRK 302213Z AUTO 27005KT 1 1/4SM +RA FEW004 BKN019 OVC046 12/M01 A2948 RMK AO2 VIS 1V2 1/2 LTG DSNT SE TSB2158E13 P0042 T01171006
Pressure 29.48 in
Visibility 1.2 miles
Clouds Few 400 ft
Mostly Cloudy 1900 ft
Overcast 4600 ft
Dew Point 50 °F
Humidity 93%
Rainfall 0.58 in
Snow Depth Not available.
6:08 AM 8:03 PM
Waxing Crescent, 26% visible
SPECI KIRK 302213Z AUTO 27005KT 1 1/4SM +RA FEW004 BKN019 OVC046 12/M01 A2948 RMK AO2 VIS 1V2 1/2 LTG DSNT SE TSB2158E13 P0042 T01171006

Get Severe Weather Alerts

Thanks for signing up!

Be on the lookout for a verification email in your inbox.

You'll start receiving the daily forecast at 8 AM.

×

10-Day Weather Forecast

Almanac

Astronomy

Apr. 30, 2017 Rise Set
Actual Time
Civil Twilight
Nautical Twilight
Astronomical Twilight
Moon
Length of Visible Light
Length of Day
Tomorrow will be .
, % of the Moon is Illuminated

Today's Extremes

State Highs State Lows

Community

WunderPhotos

WunderBlog® & News

Nearby

Air Quality

  Air Quality AQ Index Pollutant
Not available.

Snow Depth

Station Depth Elevation

Earthquake Activity

City Distance Mag. Time & Date
Minimum magnitude displayed is 2.5.

Coastal Water Temperatures

Place Temperature

Stations

Nearby Weather Stations

Station Location Temp. Windchill Dew Point Humidity Wind Precip. Elev Updated Type
                   

Watches & Warnings

There are currently no watches in effect.